Morral, Ohio
Current Conditions -  °F | °C
As of 4:53 PM on Sunday 23 Nov 2014 (Local Time) from KMNN Reporting Station
Scattered Clouds Scattered Clouds  
Wind Chill: 60°   Ceiling: Unl
Heat Index: 60°   Visibility: 10mi
Dew Point: 42°   Wind: 15mph
Humidity: 51%   Direction: 140°SE
Pressure: 29.66"   Gusts: NA
Location:  40.69°N, 83.21°W
Report Text: KMNN 232153Z AUTO 14013KT 10SM SCT120 16/06 A2966 RMK AO2 SLP045 T01560056 TSNO
Loading
Personal Weather Stations






























Interactive Weather Map New forecast layout! Learn more

10-Day Weather Forecast

Advertisements
Track Severe Weather on mobile